Time;durP1;ratioP1;P1;durP2;ratioP2;P2;SDS_P1;SDS_P2;PMS_P1;PMS_P2;Temp;Humidity;BMP_temperature;BMP_pressure;BME280_temperature;BME280_humidity;BME280_pressure;Samples;Min_cycle;Max_cycle;Signal;HPM_P1;HPM_P2
2023/06/13 00:01:27;;;;;;;1999.90;999.90;;;;;;;15.00;100.00;95061.50;5066688;28;20174;-63
2023/06/13 00:03:53;;;;;;;1999.90;999.90;;;;;;;14.87;100.00;95060.75;5066184;28;20185;-63
2023/06/13 00:06:18;;;;;;;1999.90;999.90;;;;;;;14.83;100.00;95065.56;5067482;28;20170;-64
2023/06/13 00:08:44;;;;;;;1999.90;999.90;;;;;;;14.79;100.00;95061.41;5065889;28;20201;-64
2023/06/13 00:11:10;;;;;;;1999.90;999.90;;;;;;;14.78;100.00;95057.09;5065887;28;20170;-64
2023/06/13 00:13:36;;;;;;;1999.90;999.90;;;;;;;14.64;100.00;95054.78;5065909;28;20194;-64
2023/06/13 00:16:02;;;;;;;1999.90;999.90;;;;;;;14.68;100.00;95056.19;5066788;28;20213;-64
2023/06/13 00:18:30;;;;;;;1999.90;999.90;;;;;;;14.61;100.00;95052.91;5065578;28;20177;-64
2023/06/13 00:20:58;;;;;;;1999.90;999.90;;;;;;;14.55;100.00;95054.63;5065850;28;20166;-64
2023/06/13 00:23:24;;;;;;;1999.90;999.90;;;;;;;14.51;100.00;95049.25;5066235;28;20184;-64
2023/06/13 00:25:50;;;;;;;1999.90;999.90;;;;;;;14.53;100.00;95046.81;5065592;28;20173;-63
2023/06/13 00:28:15;;;;;;;1999.90;999.90;;;;;;;14.45;100.00;95045.50;5065547;28;20265;-64
2023/06/13 00:30:40;;;;;;;1999.90;999.90;;;;;;;14.39;100.00;95041.72;5066153;28;20252;-64
2023/06/13 00:33:07;;;;;;;1999.90;999.90;;;;;;;14.27;100.00;95042.47;5065310;28;20166;-64
2023/06/13 00:35:32;;;;;;;1999.90;999.90;;;;;;;14.29;100.00;95042.03;5065527;28;20237;-64
2023/06/13 00:37:58;;;;;;;1999.90;999.90;;;;;;;14.21;100.00;95046.16;5065966;28;20177;-64
2023/06/13 00:40:24;;;;;;;1999.90;999.90;;;;;;;14.18;100.00;95034.09;5065401;28;20170;-64
2023/06/13 00:42:53;;;;;;;1999.90;999.90;;;;;;;14.20;100.00;95028.91;5065403;28;20245;-63
2023/06/13 00:45:25;;;;;;;1999.90;999.90;;;;;;;14.18;100.00;95027.81;5065839;28;20165;-64
2023/06/13 00:47:54;;;;;;;1999.90;999.90;;;;;;;14.06;100.00;95023.06;5065728;28;20194;-64
2023/06/13 00:50:26;;;;;;;1999.90;999.90;;;;;;;14.03;100.00;95013.72;5065118;28;20170;-64
2023/06/13 00:52:51;;;;;;;1999.90;999.90;;;;;;;14.05;100.00;95014.03;5064900;28;20235;-63
2023/06/13 00:55:17;;;;;;;1999.90;999.90;;;;;;;13.99;100.00;95002.03;5065678;28;20237;-64
2023/06/13 00:57:43;;;;;;;1999.90;999.90;;;;;;;13.98;100.00;95006.00;5064750;28;20257;-63
2023/06/13 01:00:09;;;;;;;1999.90;999.90;;;;;;;13.86;100.00;95006.72;5065451;28;20200;-64
2023/06/13 01:02:36;;;;;;;1999.90;999.90;;;;;;;13.96;100.00;95002.94;5065040;28;20257;-63
2023/06/13 01:05:02;;;;;;;1999.90;999.90;;;;;;;13.80;100.00;95008.44;5064727;28;20219;-64
2023/06/13 01:07:29;;;;;;;1999.90;999.90;;;;;;;13.77;100.00;95001.06;5065362;28;20174;-63
2023/06/13 01:09:56;;;;;;;1999.90;999.90;;;;;;;13.77;100.00;94992.09;5064865;28;20178;-63
2023/06/13 01:12:32;;;;;;;1999.90;999.90;;;;;;;13.77;100.00;94995.59;5064739;28;20258;-64
2023/06/13 01:15:08;;;;;;;1999.90;999.90;;;;;;;13.73;100.00;94992.16;5065093;28;20212;-63
2023/06/13 01:17:41;;;;;;;1999.90;999.90;;;;;;;13.77;100.00;94995.59;5065461;28;20165;-63
2023/06/13 01:20:11;;;;;;;1999.90;999.90;;;;;;;13.68;100.00;94992.69;5065165;28;20166;-64
2023/06/13 01:23:04;;;;;;;1999.90;999.90;;;;;;;13.70;100.00;94995.81;5065490;28;20212;-64
2023/06/13 01:25:57;;;;;;;1999.90;999.90;;;;;;;13.62;100.00;94991.69;5064580;28;20513;-64
2023/06/13 01:28:24;;;;;;;1999.90;999.90;;;;;;;13.68;100.00;94981.72;5064951;28;20247;-64
2023/06/13 01:30:51;;;;;;;1999.90;999.90;;;;;;;13.53;100.00;94977.81;5064983;28;20170;-63
2023/06/13 01:33:18;;;;;;;1999.90;999.90;;;;;;;13.60;100.00;94980.38;5064307;28;20174;-64
2023/06/13 01:35:44;;;;;;;1999.90;999.90;;;;;;;13.65;100.00;94976.34;5064894;28;20193;-63
2023/06/13 01:38:09;;;;;;;1999.90;999.90;;;;;;;13.53;100.00;94968.81;5064289;28;20178;-64
2023/06/13 01:40:35;;;;;;;1999.90;999.90;;;;;;;13.50;100.00;94975.94;5064782;28;20224;-63
2023/06/13 01:43:00;;;;;;;1999.90;999.90;;;;;;;13.45;100.00;94973.72;5064246;28;20170;-65
2023/06/13 01:45:26;;;;;;;1999.90;999.90;;;;;;;13.42;100.00;94974.59;5064492;28;20169;-63
2023/06/13 01:48:13;;;;;;;1999.90;999.90;;;;;;;13.36;100.00;94970.81;5064017;28;20201;-64
2023/06/13 01:50:48;;;;;;;1999.90;999.90;;;;;;;13.34;100.00;94970.50;5064673;28;20185;-64
2023/06/13 01:53:26;;;;;;;1999.90;999.90;;;;;;;13.32;100.00;94964.66;5064573;28;20193;-64
2023/06/13 01:55:57;;;;;;;1999.90;999.90;;;;;;;13.27;100.00;94956.94;5064283;28;20176;-64
2023/06/13 01:58:29;;;;;;;1999.90;999.90;;;;;;;13.22;100.00;94954.72;5064487;28;20194;-64
2023/06/13 02:00:55;;;;;;;1999.90;999.90;;;;;;;13.15;100.00;94965.88;5064587;28;20169;-63
2023/06/13 02:03:22;;;;;;;1999.90;999.90;;;;;;;13.11;100.00;94959.69;5063951;28;20212;-64
2023/06/13 02:05:48;;;;;;;1999.90;999.90;;;;;;;13.03;100.00;94966.56;5064402;28;20176;-64
2023/06/13 02:08:13;;;;;;;1999.90;999.90;;;;;;;12.92;100.00;94955.84;5064360;28;20269;-64
2023/06/13 02:10:38;;;;;;;1999.90;999.90;;;;;;;12.91;100.00;94950.78;5063852;28;20170;-64
2023/06/13 02:13:05;;;;;;;1999.90;999.90;;;;;;;12.92;100.00;94952.31;5064232;28;20189;-64
2023/06/13 02:15:30;;;;;;;1999.90;999.90;;;;;;;12.84;100.00;94945.47;5063913;28;20244;-64
2023/06/13 02:17:56;;;;;;;1999.90;999.90;;;;;;;12.76;100.00;94944.09;5064378;28;20186;-64
2023/06/13 02:20:21;;;;;;;1999.90;999.90;;;;;;;12.76;100.00;94949.59;5063766;28;20170;-64
2023/06/13 02:22:46;;;;;;;1999.90;999.90;;;;;;;12.72;100.00;94948.91;5063705;28;20169;-64
2023/06/13 02:25:12;;;;;;;1999.90;999.90;;;;;;;12.74;100.00;94943.75;5064493;28;20205;-64
2023/06/13 02:27:38;;;;;;;1999.90;999.90;;;;;;;12.67;100.00;94941.94;5064063;28;20170;-64
2023/06/13 02:30:04;;;;;;;1999.90;999.90;;;;;;;12.70;100.00;94940.31;5064425;28;20216;-65
2023/06/13 02:32:29;;;;;;;1999.90;999.90;;;;;;;12.61;100.00;94937.41;5063576;28;20165;-64
2023/06/13 02:34:55;;;;;;;1999.90;999.90;;;;;;;12.58;100.00;94939.06;5063644;28;20193;-63
2023/06/13 02:37:20;;;;;;;1999.90;999.90;;;;;;;12.68;100.00;94940.00;5063255;28;20215;-64
2023/06/13 02:39:46;;;;;;;1999.90;999.90;;;;;;;12.74;100.00;94924.56;5063574;28;20177;-64
2023/06/13 02:42:11;;;;;;;1999.90;999.90;;;;;;;12.69;100.00;94933.31;5063182;28;20169;-64
2023/06/13 02:44:36;;;;;;;1999.90;999.90;;;;;;;12.62;100.00;94934.25;5064111;28;20251;-63
2023/06/13 02:47:02;;;;;;;1999.90;999.90;;;;;;;12.62;100.00;94937.00;5064117;28;20194;-64
2023/06/13 02:49:27;;;;;;;1999.90;999.90;;;;;;;12.59;100.00;94934.31;5063919;28;20245;-64
2023/06/13 02:51:52;;;;;;;1999.90;999.90;;;;;;;12.57;100.00;94932.00;5064175;28;20170;-63
2023/06/13 02:54:18;;;;;;;1999.90;999.90;;;;;;;12.47;100.00;94927.56;5063266;28;20178;-64
2023/06/13 02:56:43;;;;;;;1999.90;999.90;;;;;;;12.46;100.00;94931.47;5063359;28;20178;-63
2023/06/13 02:59:09;;;;;;;1999.90;999.90;;;;;;;12.53;100.00;94936.81;5063373;28;20170;-64
2023/06/13 03:01:34;;;;;;;1999.90;999.90;;;;;;;12.45;100.00;94929.16;5064122;28;20166;-63
2023/06/13 03:04:00;;;;;;;1999.90;999.90;;;;;;;12.60;100.00;94930.38;5064144;28;20233;-63
2023/06/13 03:06:26;;;;;;;1999.90;999.90;;;;;;;12.52;100.00;94935.25;5063849;28;20174;-64
2023/06/13 03:08:52;;;;;;;1999.90;999.90;;;;;;;12.51;100.00;94938.44;5063201;28;20300;-63
2023/06/13 03:11:18;;;;;;;1999.90;999.90;;;;;;;12.46;100.00;94930.72;5063252;28;20170;-64
2023/06/13 03:13:45;;;;;;;1999.90;999.90;;;;;;;12.32;100.00;94936.53;5063166;28;20261;-64
2023/06/13 03:16:11;;;;;;;1999.90;999.90;;;;;;;12.33;100.00;94927.88;5063024;28;20221;-63
2023/06/13 03:18:37;;;;;;;1999.90;999.90;;;;;;;12.31;100.00;94933.00;5063185;28;20170;-64
2023/06/13 03:21:03;;;;;;;1999.90;999.90;;;;;;;12.33;100.00;94935.31;5063075;28;20166;-64
2023/06/13 03:23:29;;;;;;;1999.90;999.90;;;;;;;12.33;100.00;94935.31;5063134;28;20212;-63
2023/06/13 03:25:54;;;;;;;1999.90;999.90;;;;;;;12.34;100.00;94939.59;5063074;28;20166;-64
2023/06/13 03:28:20;;;;;;;1999.90;999.90;;;;;;;12.39;100.00;94941.84;5065785;28;20212;-63
2023/06/13 03:30:45;;;;;;;1999.90;999.90;;;;;;;12.51;100.00;94938.44;5067257;28;20173;-63
2023/06/13 03:33:10;;;;;;;1999.90;999.90;;;;;;;12.55;100.00;94948.13;5066652;28;20171;-63
2023/06/13 03:35:36;;;;;;;1999.90;999.90;;;;;;;12.66;100.00;94950.59;5067397;28;20216;-63
2023/06/13 03:38:02;;;;;;;1999.90;999.90;;;;;;;12.82;100.00;94942.41;5067072;28;20177;-64
2023/06/13 03:40:28;;;;;;;1999.90;999.90;;;;;;;13.17;100.00;94941.53;5066549;28;20215;-63
2023/06/13 03:42:53;;;;;;;1999.90;999.90;;;;;;;13.14;100.00;94948.66;5066576;28;20166;-63
2023/06/13 03:45:19;;;;;;;1999.90;999.90;;;;;;;13.34;100.00;94945.81;5066383;28;20200;-63
2023/06/13 03:47:45;;;;;;;1999.90;999.90;;;;;;;13.49;100.00;94946.97;5067006;28;20174;-63
2023/06/13 03:50:10;;;;;;;1999.90;999.90;;;;;;;13.53;100.00;94941.38;5066303;28;20185;-64
2023/06/13 03:52:36;;;;;;;1999.90;999.90;;;;;;;13.80;100.00;94939.81;5066357;28;20178;-64
2023/06/13 03:55:01;;;;;;;1999.90;999.90;;;;;;;14.02;100.00;94938.03;5066292;28;20253;-65
2023/06/13 03:57:26;;;;;;;1999.90;999.90;;;;;;;14.27;100.00;94940.09;5066252;28;20178;-63
2023/06/13 03:59:52;;;;;;;1999.90;999.90;;;;;;;14.30;100.00;94939.97;5065858;28;20197;-67
2023/06/13 04:02:19;;;;;;;1999.90;999.90;;;;;;;14.24;100.00;94946.47;5066840;28;20174;-67
2023/06/13 04:04:46;;;;;;;1999.90;999.90;;;;;;;14.45;100.00;94935.59;5066005;28;20174;-66
2023/06/13 04:07:12;;;;;;;1999.90;999.90;;;;;;;14.44;100.00;94944.28;5066047;28;20193;-66
2023/06/13 04:09:37;;;;;;;1999.90;999.90;;;;;;;14.63;100.00;94946.81;5066095;28;20220;-66
2023/06/13 04:12:03;;;;;;;1999.90;999.90;;;;;;;14.86;100.00;94949.22;5065594;28;20170;-66
2023/06/13 04:14:29;;;;;;;1999.90;999.90;;;;;;;15.09;100.00;94953.59;5065653;28;20272;-66
2023/06/13 04:16:54;;;;;;;1999.90;999.90;;;;;;;15.36;100.00;94954.66;5065532;28;20304;-66
2023/06/13 04:19:20;;;;;;;1999.90;999.90;;;;;;;15.97;100.00;94954.88;5065794;28;20173;-68
2023/06/13 04:21:46;;;;;;;1999.90;999.90;;;;;;;15.67;100.00;94952.78;5065782;28;20161;-67
2023/06/13 04:24:14;;;;;;;1999.90;999.90;;;;;;;16.00;100.00;94942.94;5066689;28;20165;-68
2023/06/13 04:26:40;;;;;;;1999.90;999.90;;;;;;;16.19;100.00;94950.13;5066616;28;20165;-68
2023/06/13 04:29:06;;;;;;;1999.90;999.90;;;;;;;16.39;100.00;94949.75;5065563;28;20268;-68
2023/06/13 04:31:34;;;;;;;1999.90;999.90;;;;;;;17.02;100.00;94950.09;5065633;28;20165;-67
2023/06/13 04:34:03;;;;;;;1999.90;999.90;;;;;;;16.80;100.00;94960.44;5066291;28;20162;-66
2023/06/13 04:36:32;;;;;;;1999.90;999.90;;;;;;;16.91;100.00;94960.00;5065885;28;20170;-67
2023/06/13 04:39:04;;;;;;;1999.90;999.90;;;;;;;16.15;100.00;94963.28;5064927;28;20166;-67
2023/06/13 04:41:34;;;;;;;1999.90;999.90;;;;;;;16.12;100.00;94964.16;5065806;28;20166;-69
2023/06/13 04:44:03;;;;;;;1999.90;999.90;;;;;;;16.59;100.00;94955.72;5066402;28;20158;-69
2023/06/13 04:46:29;;;;;;;1999.90;999.90;;;;;;;16.83;100.00;94964.28;5066000;28;20173;-69
2023/06/13 04:48:54;;;;;;;1999.90;999.90;;;;;;;16.94;100.00;94975.66;5064914;28;20198;-68
2023/06/13 04:51:20;;;;;;;1999.90;999.90;;;;;;;17.00;100.00;94969.06;5065129;28;20170;-69
2023/06/13 04:53:46;;;;;;;1999.90;999.90;;;;;;;17.36;98.40;94973.94;5065109;28;20182;-69
2023/06/13 04:56:11;;;;;;;1999.90;999.90;;;;;;;16.96;97.71;94967.69;5064747;28;20173;-63
2023/06/13 04:58:36;;;;;;;1999.90;999.90;;;;;;;16.86;99.44;94963.38;5064721;28;20204;-66
2023/06/13 05:01:02;;;;;;;1999.90;999.90;;;;;;;17.38;96.50;94963.22;5065312;28;20165;-65
2023/06/13 05:03:28;;;;;;;1999.90;999.90;;;;;;;17.21;97.71;94956.41;5064916;28;20194;-62
2023/06/13 05:05:53;;;;;;;1999.90;999.90;;;;;;;17.89;94.72;94956.66;5064718;28;20177;-64
2023/06/13 05:08:21;;;;;;;1999.90;999.90;;;;;;;17.54;92.62;94965.72;5065249;28;20214;-66
2023/06/13 05:10:46;;;;;;;1999.90;999.90;;;;;;;17.52;93.02;94971.69;5065157;28;20184;-68
2023/06/13 05:13:12;;;;;;;1999.90;999.90;;;;;;;17.37;94.25;94965.19;5064786;28;20234;-66
2023/06/13 05:15:38;;;;;;;1999.90;999.90;;;;;;;17.71;91.21;94969.72;5064421;28;20217;-66
2023/06/13 05:18:06;;;;;;;1999.90;999.90;;;;;;;17.60;88.99;94980.44;5065043;28;20169;-67
2023/06/13 05:20:32;;;;;;;1999.90;999.90;;;;;;;17.67;88.07;94974.63;5064527;28;20269;-66
2023/06/13 05:23:00;;;;;;;1999.90;999.90;;;;;;;18.19;85.44;94964.03;5064506;28;20188;-61
2023/06/13 05:25:25;;;;;;;1999.90;999.90;;;;;;;18.30;85.95;94969.09;5064057;28;20180;-75
2023/06/13 05:27:51;;;;;;;1999.90;999.90;;;;;;;18.76;80.12;94967.78;5063867;28;20169;-66
2023/06/13 05:30:16;;;;;;;1999.90;999.90;;;;;;;19.11;80.21;94966.09;5064222;28;20181;-68
2023/06/13 05:32:42;;;;;;;1999.90;999.90;;;;;;;18.89;75.62;94971.13;5063992;28;20177;-70
2023/06/13 05:35:08;;;;;;;1999.90;999.90;;;;;;;18.62;77.12;94954.63;5064616;28;20215;-68
2023/06/13 05:37:37;;;;;;;1999.90;999.90;;;;;;;19.21;74.37;94964.81;5064033;28;20197;-68
2023/06/13 05:40:06;;;;;;;1999.90;999.90;;;;;;;19.45;70.01;94968.44;5064725;28;20170;-66
2023/06/13 05:42:36;;;;;;;1999.90;999.90;;;;;;;19.36;72.89;94965.69;5064413;28;20170;-69
2023/06/13 05:45:06;;;;;;;1999.90;999.90;;;;;;;19.21;73.60;94965.59;5065038;28;20241;-64
2023/06/13 05:47:32;;;;;;;1999.90;999.90;;;;;;;19.03;72.21;94960.16;5064439;28;20176;-62
2023/06/13 05:49:58;;;;;;;1999.90;999.90;;;;;;;18.55;72.70;94966.78;5063763;28;20209;-62
2023/06/13 05:52:23;;;;;;;1999.90;999.90;;;;;;;19.36;70.21;94949.84;5063787;28;20173;-62
2023/06/13 05:54:49;;;;;;;1999.90;999.90;;;;;;;19.67;67.77;94951.50;5063910;28;20180;-62
2023/06/13 05:57:15;;;;;;;1999.90;999.90;;;;;;;19.76;64.74;94971.59;5063939;28;20170;-62
2023/06/13 05:59:40;;;;;;;1999.90;999.90;;;;;;;19.68;63.09;94970.44;5063545;28;20295;-63
2023/06/13 06:02:06;;;;;;;1999.90;999.90;;;;;;;19.11;65.14;94966.09;5063198;28;20166;-63
2023/06/13 06:04:31;;;;;;;1999.90;999.90;;;;;;;19.44;64.34;94964.88;5064301;28;20237;-63
2023/06/13 06:06:57;;;;;;;1999.90;999.90;;;;;;;19.40;64.96;94975.38;5064282;28;20170;-63
2023/06/13 06:09:22;;;;;;;1999.90;999.90;;;;;;;20.16;60.97;94969.16;5063670;28;20193;-63
2023/06/13 06:11:49;;;;;;;1999.90;999.90;;;;;;;20.50;60.61;94989.97;5064248;28;20162;-63
2023/06/13 06:14:15;;;;;;;1999.90;999.90;;;;;;;19.60;59.98;94974.78;5063312;28;20186;-63
2023/06/13 06:16:40;;;;;;;1999.90;999.90;;;;;;;19.02;61.61;94983.50;5063390;28;20224;-63
2023/06/13 06:19:05;;;;;;;1999.90;999.90;;;;;;;19.67;59.65;94981.97;5063583;28;20170;-64
2023/06/13 06:21:30;;;;;;;1999.90;999.90;;;;;;;20.17;57.23;94990.09;5064040;28;20165;-63
2023/06/13 06:23:57;;;;;;;1999.90;999.90;;;;;;;20.37;57.77;94964.50;5063656;28;20284;-63
2023/06/13 06:26:22;;;;;;;1999.90;999.90;;;;;;;20.45;55.73;94966.44;5063483;28;20173;-62
2023/06/13 06:28:48;;;;;;;1999.90;999.90;;;;;;;20.20;54.47;95002.25;5063857;28;20197;-63
2023/06/13 06:31:13;;;;;;;1999.90;999.90;;;;;;;20.29;54.92;94969.63;5063523;28;20176;-68
2023/06/13 06:33:38;;;;;;;1999.90;999.90;;;;;;;19.97;54.76;94981.63;5064084;28;20188;-67
2023/06/13 06:36:04;;;;;;;1999.90;999.90;;;;;;;20.55;52.93;94980.97;5063480;28;20170;-69
2023/06/13 06:38:30;;;;;;;1999.90;999.90;;;;;;;20.89;53.94;94980.28;5063864;28;20174;-69
2023/06/13 06:40:55;;;;;;;1999.90;999.90;;;;;;;20.64;54.50;94967.75;5063334;28;20174;-67
2023/06/13 06:43:21;;;;;;;1999.90;999.90;;;;;;;21.10;54.52;94971.59;5063680;28;20165;-67
2023/06/13 06:45:46;;;;;;;1999.90;999.90;;;;;;;21.20;51.28;94973.00;5063162;28;20232;-68
2023/06/13 06:48:12;;;;;;;1999.90;999.90;;;;;;;21.76;50.18;94963.47;5062890;28;20198;-68
2023/06/13 06:50:37;;;;;;;1999.90;999.90;;;;;;;21.92;50.02;94963.69;5063752;28;20170;-68
2023/06/13 06:53:02;;;;;;;1999.90;999.90;;;;;;;22.16;49.19;94969.78;5063546;28;20173;-68
2023/06/13 06:55:27;;;;;;;1999.90;999.90;;;;;;;21.73;49.14;94968.00;5063800;28;20178;-69
2023/06/13 06:57:53;;;;;;;1999.90;999.90;;;;;;;23.06;46.87;94975.00;5063076;28;20176;-69
2023/06/13 07:00:22;;;;;;;1999.90;999.90;;;;;;;23.15;46.62;94975.56;5063149;28;20220;-68
2023/06/13 07:02:48;;;;;;;1999.90;999.90;;;;;;;22.02;46.87;94973.41;5065689;28;20189;-68
2023/06/13 07:05:15;;;;;;;1999.90;999.90;;;;;;;21.94;48.48;94972.31;5067079;28;20180;-68
2023/06/13 07:07:42;;;;;;;1999.90;999.90;;;;;;;21.77;49.42;94971.31;5067061;28;20245;-67
2023/06/13 07:10:08;;;;;;;1999.90;999.90;;;;;;;21.89;49.07;94964.63;5067026;28;20241;-69
2023/06/13 07:12:34;;;;;;;1999.90;999.90;;;;;;;22.00;48.32;94959.22;5067453;28;20165;-69
2023/06/13 07:15:00;;;;;;;1999.90;999.90;;;;;;;22.89;48.57;94960.16;5066680;28;20237;-68
2023/06/13 07:17:25;;;;;;;1999.90;999.90;;;;;;;23.20;46.16;94957.38;5066867;28;20170;-69
2023/06/13 07:19:51;;;;;;;1999.90;999.90;;;;;;;22.37;48.16;94974.06;5067687;28;20170;-69
2023/06/13 07:22:16;;;;;;;1999.90;999.90;;;;;;;22.21;47.83;94963.50;5067429;28;20177;-67
2023/06/13 07:24:42;;;;;;;1999.90;999.90;;;;;;;23.04;46.41;94963.56;5066857;28;20166;-68
2023/06/13 07:27:07;;;;;;;1999.90;999.90;;;;;;;23.85;45.42;94967.44;5066689;28;20170;-66
2023/06/13 07:29:33;;;;;;;1999.90;999.90;;;;;;;23.72;44.19;94958.75;5066673;28;20201;-66
2023/06/13 07:32:00;;;;;;;1999.90;999.90;;;;;;;22.98;46.09;94968.34;5066690;28;20245;-66
2023/06/13 07:34:25;;;;;;;1999.90;999.90;;;;;;;22.88;46.68;94967.00;5067070;28;20173;-67
2023/06/13 07:36:51;;;;;;;1999.90;999.90;;;;;;;23.45;46.17;94965.69;5066479;28;20241;-66
2023/06/13 07:39:16;;;;;;;1999.90;999.90;;;;;;;24.16;43.87;94964.56;5066383;28;20231;-66
2023/06/13 07:41:44;;;;;;;1999.90;999.90;;;;;;;23.48;44.87;94955.56;5066504;28;20170;-66
2023/06/13 07:44:09;;;;;;;1999.90;999.90;;;;;;;23.08;45.58;94961.34;5066786;28;20170;-66
2023/06/13 07:46:34;;;;;;;1999.90;999.90;;;;;;;25.73;42.57;94963.72;5066411;28;20166;-66
2023/06/13 07:49:00;;;;;;;1999.90;999.90;;;;;;;23.76;44.58;94959.28;5066488;28;20201;-66
2023/06/13 07:51:26;;;;;;;1999.90;999.90;;;;;;;22.80;46.86;94979.84;5066265;28;20166;-67
2023/06/13 07:53:51;;;;;;;1999.90;999.90;;;;;;;23.05;45.30;94956.75;5066919;28;20189;-66
2023/06/13 07:56:16;;;;;;;1999.90;999.90;;;;;;;23.40;45.93;94957.28;5065847;28;20166;-66
2023/06/13 07:58:42;;;;;;;1999.90;999.90;;;;;;;23.14;46.12;94953.78;5065938;28;20166;-66
2023/06/13 08:01:07;;;;;;;1999.90;999.90;;;;;;;23.38;46.62;94962.59;5066543;28;20172;-66
2023/06/13 08:03:34;;;;;;;1999.90;999.90;;;;;;;24.56;44.11;94947.41;5065952;28;20174;-66
2023/06/13 08:06:00;;;;;;;1999.90;999.90;;;;;;;24.75;42.70;94970.84;5066168;28;20174;-66
2023/06/13 08:08:26;;;;;;;1999.90;999.90;;;;;;;22.42;46.62;94959.44;5066287;28;20205;-66
2023/06/13 08:10:51;;;;;;;1999.90;999.90;;;;;;;22.09;50.01;94947.97;5065799;28;20170;-66
2023/06/13 08:13:16;;;;;;;1999.90;999.90;;;;;;;23.22;48.52;94944.50;5065907;28;20185;-66
2023/06/13 08:15:42;;;;;;;1999.90;999.90;;;;;;;23.43;47.76;94953.50;5065865;28;20240;-66
2023/06/13 08:18:07;;;;;;;1999.90;999.90;;;;;;;23.82;45.47;94951.69;5066165;28;20207;-67
2023/06/13 08:20:32;;;;;;;1999.90;999.90;;;;;;;23.88;42.89;94952.47;5065779;28;20173;-67
2023/06/13 08:22:59;;;;;;;1999.90;999.90;;;;;;;24.04;43.69;94957.41;5065617;28;20166;-66
2023/06/13 08:25:24;;;;;;;1999.90;999.90;;;;;;;23.99;43.64;94958.91;5065520;28;20166;-66
2023/06/13 08:27:52;;;;;;;1999.90;999.90;;;;;;;23.53;45.94;94946.47;5065481;28;20170;-66
2023/06/13 08:30:17;;;;;;;1999.90;999.90;;;;;;;24.28;43.97;94966.88;5066022;28;20181;-67
2023/06/13 08:32:46;;;;;;;1999.90;999.90;;;;;;;24.69;42.85;94961.69;5065433;28;20170;-66
2023/06/13 08:35:12;;;;;;;1999.90;999.90;;;;;;;24.22;42.02;94956.97;5065380;28;20177;-67
2023/06/13 08:37:38;;;;;;;1999.90;999.90;;;;;;;23.33;43.97;94960.53;5065304;28;20237;-67
2023/06/13 08:40:09;;;;;;;1999.90;999.90;;;;;;;23.57;43.16;94964.50;5065339;28;20193;-68
2023/06/13 08:42:36;;;;;;;1999.90;999.90;;;;;;;23.79;43.02;94969.44;5065862;28;20174;-68
2023/06/13 08:45:02;;;;;;;1999.90;999.90;;;;;;;23.03;44.82;94975.97;5065729;28;20166;-68
2023/06/13 08:47:28;;;;;;;1999.90;999.90;;;;;;;23.33;43.91;94961.28;5065051;28;20197;-68
2023/06/13 08:49:54;;;;;;;1999.90;999.90;;;;;;;22.91;43.61;94968.78;5065641;28;20198;-66
2023/06/13 08:52:20;;;;;;;1999.90;999.90;;;;;;;24.00;43.18;94985.53;5065617;28;20272;-67
2023/06/13 08:54:53;;;;;;;1999.90;999.90;;;;;;;24.09;42.15;94998.53;5065117;28;20176;-66
2023/06/13 08:57:21;;;;;;;1999.90;999.90;;;;;;;24.57;42.02;94966.47;5065807;28;20154;-66
2023/06/13 08:59:48;;;;;;;1999.90;999.90;;;;;;;24.03;42.06;94962.22;5065057;28;20263;-66
2023/06/13 09:02:19;;;;;;;1999.90;999.90;;;;;;;23.92;42.30;94961.38;5064965;28;20174;-66
2023/06/13 09:04:46;;;;;;;1999.90;999.90;;;;;;;22.65;43.25;94968.06;5064782;28;20177;-66
2023/06/13 09:07:13;;;;;;;1999.90;999.90;;;;;;;23.31;42.80;94968.63;5065225;28;20189;-67
2023/06/13 09:09:39;;;;;;;1999.90;999.90;;;;;;;24.30;41.67;94963.59;5064804;28;20268;-66
2023/06/13 09:12:06;;;;;;;1999.90;999.90;;;;;;;24.29;41.06;94968.41;5064624;28;20228;-67
2023/06/13 09:14:32;;;;;;;1999.90;999.90;;;;;;;25.53;39.30;94968.84;5064683;28;20221;-67
2023/06/13 09:16:58;;;;;;;1999.90;999.90;;;;;;;24.65;38.75;94969.53;5064700;28;20220;-67
2023/06/13 09:19:23;;;;;;;1999.90;999.90;;;;;;;25.59;38.08;94964.75;5064636;28;20181;-68
2023/06/13 09:21:50;;;;;;;1999.90;999.90;;;;;;;25.12;38.27;94960.19;5064671;28;20174;-68
2023/06/13 09:24:15;;;;;;;1999.90;999.90;;;;;;;25.50;37.89;94967.81;5063838;28;20245;-69
2023/06/13 09:26:41;;;;;;;1999.90;999.90;;;;;;;24.19;38.87;94955.19;5064768;28;20193;-68
2023/06/13 09:29:07;;;;;;;1999.90;999.90;;;;;;;25.16;37.49;94961.47;5064404;28;20209;-69
2023/06/13 09:31:36;;;;;;;1999.90;999.90;;;;;;;23.36;39.15;94954.72;5064922;28;20178;-68
2023/06/13 09:34:02;;;;;;;1999.90;999.90;;;;;;;24.41;37.69;94949.66;5064290;28;20176;-68
2023/06/13 09:36:27;;;;;;;1999.90;999.90;;;;;;;25.30;37.09;94960.47;5064310;28;20170;-69
2023/06/13 09:38:56;;;;;;;1999.90;999.90;;;;;;;24.60;38.21;94953.50;5064295;28;20192;-68
2023/06/13 09:41:24;;;;;;;1999.90;999.90;;;;;;;24.27;37.91;94970.19;5064239;28;20181;-68
2023/06/13 09:43:52;;;;;;;1999.90;999.90;;;;;;;23.58;38.03;94948.53;5064675;28;20174;-68
2023/06/13 09:46:19;;;;;;;1999.90;999.90;;;;;;;24.33;38.74;94946.59;5063983;28;20241;-69
2023/06/13 09:48:45;;;;;;;1999.90;999.90;;;;;;;24.10;38.38;94972.91;5064037;28;20206;-68
2023/06/13 09:51:11;;;;;;;1999.90;999.90;;;;;;;23.66;38.10;94938.41;5064633;28;20170;-69
2023/06/13 09:53:37;;;;;;;1999.90;999.90;;;;;;;23.54;38.17;94945.22;5064019;28;20200;-69
2023/06/13 09:56:02;;;;;;;1999.90;999.90;;;;;;;24.08;36.84;94938.41;5064041;28;20197;-67
2023/06/13 09:58:28;;;;;;;1999.90;999.90;;;;;;;24.35;37.20;94937.72;5063558;28;20177;-68
2023/06/13 10:00:57;;;;;;;1999.90;999.90;;;;;;;24.76;35.21;94939.59;5063663;28;20190;-68
2023/06/13 10:03:23;;;;;;;1999.90;999.90;;;;;;;25.15;35.05;94936.81;5064586;28;20178;-69
2023/06/13 10:05:49;;;;;;;1999.90;999.90;;;;;;;24.72;34.40;94938.31;5064633;28;20208;-69
2023/06/13 10:08:14;;;;;;;1999.90;999.90;;;;;;;24.96;34.57;94933.00;5063763;28;20198;-68
2023/06/13 10:10:40;;;;;;;1999.90;999.90;;;;;;;24.76;34.64;94930.44;5065068;28;20177;-69
2023/06/13 10:13:11;;;;;;;1999.90;999.90;;;;;;;24.11;33.97;94934.59;5063765;28;20261;-68
2023/06/13 10:15:51;;;;;;;1999.90;999.90;;;;;;;24.91;33.45;94933.78;5063953;28;20209;-68
2023/06/13 10:18:21;;;;;;;1999.90;999.90;;;;;;;25.65;33.22;94928.38;5063677;28;20173;-69
2023/06/13 10:20:50;;;;;;;1999.90;999.90;;;;;;;26.24;32.39;94923.84;5064150;28;20224;-69
2023/06/13 10:23:19;;;;;;;1999.90;999.90;;;;;;;25.02;33.73;94933.78;5063666;28;20185;-64
2023/06/13 10:25:52;;;;;;;1999.90;999.90;;;;;;;25.24;33.57;94928.91;5063932;28;20180;-76
2023/06/13 10:28:22;;;;;;;1999.90;999.90;;;;;;;25.95;32.23;94923.69;5063751;28;20235;-78
2023/06/13 10:31:15;;;;;;;1999.90;999.90;;;;;;;25.29;32.69;94935.81;5063612;28;20190;-75
2023/06/13 10:33:46;;;;;;;1999.90;999.90;;;;;;;25.60;33.15;94929.91;5064156;28;20165;-75
2023/06/13 10:36:17;;;;;;;1999.90;999.90;;;;;;;25.14;32.69;94933.22;5063610;28;20196;-75
2023/06/13 10:39:11;;;;;;;1999.90;999.90;;;;;;;26.12;32.15;94927.22;5067374;28;20222;-72
2023/06/13 10:41:47;;;;;;;1999.90;999.90;;;;;;;24.81;32.79;94941.63;5068632;28;20169;-68
2023/06/13 10:44:26;;;;;;;1999.90;999.90;;;;;;;24.12;33.10;94941.72;5068409;28;20223;-71
2023/06/13 10:46:53;;;;;;;1999.90;999.90;;;;;;;24.26;33.69;94921.19;5067811;28;20166;-70
2023/06/13 10:49:18;;;;;;;1999.90;999.90;;;;;;;24.94;33.14;94904.78;5067472;28;20197;-70